LTCG Airport Information

Runway Information
Runway 11 Length 8661 ft width 148 ft
Elevation 104 ft Threshold 0 ft Heading 112
Runway 29 Length 8661 ft Width 148 ft
Elevation 95 ft Threshold 0 ft Heading 292
Airport Frequencies
Type APP Name APP Frequency 120.1 MHZ
Type GND Name GND Frequency 121.9 MHZ
Type TWR Name TWR Frequency 120.1 MHZ
Airport Navaids
Type NDB Name Trabzon Frequency 392 KHZ
Type VOR-DME Name Trabzon Frequency 114900 KHZ
Type NDB Name Trabzon Frequency 371 KHZ
Airport Weather Information & NOTAM
ADDS - METARS form results

(1810 UTC 24 June 2018)
 
METAR text: LTCG 241750Z 22005KT 9999 BKN035 25/19 Q1015 NOSIG RMK RWY29 23004KT 200V260
Conditions at: LTCG (TRABZON , TR) observed 1750 UTC 24 June 2018
Temperature: 25.0°C (77°F)
Dewpoint: 19.0°C (66°F) [RH = 69%]
Pressure (altimeter): 29.97 inches Hg (1015.0 mb)
Winds: from the SW (220 degrees) at 6 MPH (5 knots; 2.6 m/s)
Visibility: 6 or more miles (10+ km)
Ceiling: 3500 feet AGL
Clouds: broken clouds at 3500 feet AGL
Weather: no significant weather observed at this time

METAR text: LTCG 241720Z 29006KT 9999 BKN035 24/19 Q1014 NOSIG RMK RWY29 29007KT
Conditions at: LTCG (TRABZON , TR) observed 1720 UTC 24 June 2018
Temperature: 24.0°C (75°F)
Dewpoint: 19.0°C (66°F) [RH = 74%]
Pressure (altimeter): 29.94 inches Hg (1014.0 mb)
Winds: from the WNW (290 degrees) at 7 MPH (6 knots; 3.1 m/s)
Visibility: 6 or more miles (10+ km)
Ceiling: 3500 feet AGL
Clouds: broken clouds at 3500 feet AGL
Weather: no significant weather observed at this time